Time,TemperatureF,DewpointF,PressureIn,WindDirection,WindDirectionDegrees,WindSpeedMPH,WindSpeedGustMPH,Humidity,HourlyPrecipIn,Conditions,Clouds,dailyrainin,SoftwareType,DateUTC
2013-03-19 00:03:00,39.0,38.0,29.82,North,0,0.0,2.0,97,0.04,,,0.42,,2013-03-19 04:03:00,
2013-03-19 00:13:00,39.0,38.0,29.82,North,0,0.0,2.0,97,0.04,,,0.42,,2013-03-19 04:13:00,
2013-03-19 00:23:00,39.0,38.0,29.82,North,0,0.0,1.0,97,0.00,,,0.42,,2013-03-19 04:23:00,
2013-03-19 00:34:00,39.0,38.0,29.86,North,0,0.0,2.0,97,0.00,,,0.42,,2013-03-19 04:34:00,
2013-03-19 00:43:00,39.0,38.0,29.86,North,0,0.0,2.0,97,0.00,,,0.42,,2013-03-19 04:43:00,
2013-03-19 00:52:00,39.0,38.0,29.86,North,0,0.0,0.0,97,0.00,,,0.42,,2013-03-19 04:52:00,
2013-03-19 01:02:00,40.0,39.0,29.84,North,0,0.0,2.0,97,0.00,,,0.42,,2013-03-19 05:02:00,
2013-03-19 01:12:00,40.0,39.0,29.84,North,0,0.0,2.0,97,0.00,,,0.42,,2013-03-19 05:12:00,
2013-03-19 01:22:00,40.0,39.0,29.85,North,0,0.0,2.0,97,0.00,,,0.42,,2013-03-19 05:22:00,
2013-03-19 01:32:00,40.0,39.0,29.84,North,0,0.0,0.0,97,0.00,,,0.42,,2013-03-19 05:32:00,
2013-03-19 01:43:00,40.0,39.0,29.84,North,0,0.0,0.0,97,0.00,,,0.42,,2013-03-19 05:43:00,
2013-03-19 01:52:00,40.0,39.0,29.85,North,0,0.0,3.0,97,0.00,,,0.42,,2013-03-19 05:52:00,
2013-03-19 02:02:00,40.0,39.0,29.85,North,0,0.0,0.0,97,0.00,,,0.41,,2013-03-19 06:02:00,
2013-03-19 02:12:00,40.0,39.0,29.85,North,0,0.0,0.0,97,0.00,,,0.41,,2013-03-19 06:12:00,
2013-03-19 02:22:00,40.0,39.0,29.84,North,0,0.0,1.0,97,0.00,,,0.41,,2013-03-19 06:22:00,
2013-03-19 02:32:00,40.0,39.0,29.84,North,0,0.0,0.0,97,0.00,,,0.41,,2013-03-19 06:32:00,
2013-03-19 02:42:00,40.0,39.0,29.84,North,0,0.0,0.0,97,0.00,,,0.41,,2013-03-19 06:42:00,
2013-03-19 02:52:00,40.0,39.0,29.83,North,0,0.0,0.0,97,0.00,,,0.41,,2013-03-19 06:52:00,
2013-03-19 03:02:00,40.0,39.0,29.82,North,0,0.0,0.0,97,0.00,,,0.41,,2013-03-19 07:02:00,
2013-03-19 03:12:00,40.0,39.0,29.82,North,0,0.0,0.0,97,0.00,,,0.41,,2013-03-19 07:12:00,
2013-03-19 03:22:00,40.0,39.0,29.81,North,0,0.0,0.0,97,0.00,,,0.41,,2013-03-19 07:22:00,
2013-03-19 03:32:00,40.0,39.0,29.82,North,0,0.0,0.0,97,0.00,,,0.41,,2013-03-19 07:32:00,
2013-03-19 03:42:00,40.0,39.0,29.82,North,0,0.0,0.0,97,0.00,,,0.41,,2013-03-19 07:42:00,
2013-03-19 03:52:00,40.0,39.0,29.81,North,0,0.0,0.0,97,0.00,,,0.41,,2013-03-19 07:52:00,
2013-03-19 04:03:00,40.0,39.0,29.80,North,0,0.0,0.0,97,0.00,,,0.40,,2013-03-19 08:03:00,
2013-03-19 04:12:00,40.0,39.0,29.80,North,0,0.0,0.0,97,0.00,,,0.40,,2013-03-19 08:12:00,
2013-03-19 04:22:00,40.0,39.0,29.80,North,0,0.0,0.0,97,0.00,,,0.40,,2013-03-19 08:22:00,
2013-03-19 04:32:00,39.0,38.0,29.80,North,0,0.0,0.0,97,0.00,,,0.40,,2013-03-19 08:32:00,
2013-03-19 04:42:00,39.0,38.0,29.80,North,0,0.0,0.0,97,0.00,,,0.40,,2013-03-19 08:42:00,
2013-03-19 04:52:00,39.0,38.0,29.80,North,0,0.0,0.0,97,0.00,,,0.40,,2013-03-19 08:52:00,
2013-03-19 05:03:00,39.0,38.0,29.81,North,0,0.0,2.0,97,0.00,,,0.40,,2013-03-19 09:03:00,
2013-03-19 05:12:00,39.0,38.0,29.81,North,0,0.0,2.0,97,0.00,,,0.40,,2013-03-19 09:12:00,
2013-03-19 05:22:00,39.0,38.0,29.81,North,0,0.0,0.0,97,0.00,,,0.40,,2013-03-19 09:22:00,
2013-03-19 05:33:00,39.0,38.0,29.81,North,0,0.0,0.0,97,0.00,,,0.40,,2013-03-19 09:33:00,
2013-03-19 05:43:00,39.0,38.0,29.81,North,0,0.0,0.0,97,0.00,,,0.40,,2013-03-19 09:43:00,
2013-03-19 05:52:00,39.0,38.0,29.81,North,0,0.0,0.0,97,0.00,,,0.40,,2013-03-19 09:52:00,
2013-03-19 06:04:00,39.0,38.0,29.81,North,0,0.0,0.0,97,0.00,,,0.39,,2013-03-19 10:04:00,
2013-03-19 06:13:00,39.0,38.0,29.81,North,0,0.0,0.0,97,0.00,,,0.39,,2013-03-19 10:13:00,
2013-03-19 06:23:00,39.0,38.0,29.81,North,0,0.0,0.0,97,0.00,,,0.39,,2013-03-19 10:23:00,
2013-03-19 06:33:00,39.0,38.0,29.81,North,0,0.0,0.0,97,0.00,,,0.39,,2013-03-19 10:33:00,
2013-03-19 06:42:00,39.0,38.0,29.81,North,0,0.0,0.0,97,0.00,,,0.39,,2013-03-19 10:42:00,
2013-03-19 06:52:00,39.0,38.0,29.81,North,0,0.0,0.0,97,0.00,,,0.39,,2013-03-19 10:52:00,
2013-03-19 07:03:00,39.0,38.0,29.81,North,0,0.0,2.0,97,0.00,,,0.39,,2013-03-19 11:03:00,
2013-03-19 07:12:00,39.0,38.0,29.81,North,0,0.0,2.0,97,0.00,,,0.39,,2013-03-19 11:12:00,
2013-03-19 07:22:00,39.0,38.0,29.80,North,0,0.0,0.0,97,0.00,,,0.39,,2013-03-19 11:22:00,
2013-03-19 07:33:00,39.0,38.0,29.80,North,0,0.0,0.0,97,0.00,,,0.39,,2013-03-19 11:33:00,
2013-03-19 07:43:00,39.0,38.0,29.80,North,0,0.0,0.0,97,0.00,,,0.39,,2013-03-19 11:43:00,
2013-03-19 07:52:00,39.0,38.0,29.80,North,0,0.0,1.0,97,0.00,,,0.39,,2013-03-19 11:52:00,
2013-03-19 08:02:00,39.0,38.0,29.81,North,0,0.0,2.0,97,0.00,,,0.39,,2013-03-19 12:02:00,
2013-03-19 08:12:00,40.0,39.0,29.82,North,0,0.0,2.0,97,0.00,,,0.39,,2013-03-19 12:12:00,
2013-03-19 08:22:00,40.0,39.0,29.82,North,0,0.0,2.0,97,0.00,,,0.39,,2013-03-19 12:22:00,
2013-03-19 08:33:00,40.0,39.0,29.84,North,0,0.0,2.0,97,0.00,,,0.39,,2013-03-19 12:33:00,
2013-03-19 08:42:00,40.0,39.0,29.84,North,0,0.0,2.0,97,0.00,,,0.39,,2013-03-19 12:42:00,
2013-03-19 08:52:00,40.0,39.0,29.84,North,0,0.0,2.0,98,0.00,,,0.39,,2013-03-19 12:52:00,
2013-03-19 09:02:00,41.0,40.0,29.85,North,0,0.0,2.0,98,0.00,,,0.39,,2013-03-19 13:02:00,
2013-03-19 09:12:00,41.0,40.0,29.85,North,0,0.0,2.0,98,0.00,,,0.39,,2013-03-19 13:12:00,
2013-03-19 09:22:00,41.0,40.0,29.86,NNW,345,1.0,4.0,98,0.00,,,0.39,,2013-03-19 13:22:00,
2013-03-19 09:33:00,42.0,41.0,29.86,North,0,0.0,3.0,98,0.00,,,0.39,,2013-03-19 13:33:00,
2013-03-19 09:42:00,42.0,41.0,29.86,North,0,0.0,3.0,98,0.00,,,0.39,,2013-03-19 13:42:00,
2013-03-19 09:52:00,42.0,41.0,29.87,North,0,0.0,2.0,98,0.00,,,0.39,,2013-03-19 13:52:00,
2013-03-19 10:02:00,43.0,42.0,29.87,North,0,0.0,2.0,98,0.00,,,0.39,,2013-03-19 14:02:00,
2013-03-19 10:12:00,43.0,42.0,29.87,North,0,0.0,2.0,98,0.00,,,0.39,,2013-03-19 14:12:00,
2013-03-19 10:22:00,45.0,44.0,29.87,SE,145,1.0,3.0,98,0.00,,,0.39,,2013-03-19 14:22:00,
2013-03-19 10:32:00,47.0,46.0,29.87,North,0,0.0,2.0,95,0.00,,,0.39,,2013-03-19 14:32:00,
2013-03-19 10:42:00,47.0,46.0,29.87,North,0,0.0,2.0,95,0.00,,,0.39,,2013-03-19 14:42:00,
2013-03-19 10:52:00,48.0,46.0,29.87,North,0,0.0,4.0,93,0.00,,,0.39,,2013-03-19 14:52:00,
2013-03-19 11:02:00,51.0,47.0,29.88,North,0,0.0,3.0,85,0.00,,,0.39,,2013-03-19 15:02:00,
2013-03-19 11:12:00,51.0,47.0,29.88,North,0,0.0,3.0,85,0.00,,,0.39,,2013-03-19 15:12:00,
2013-03-19 11:22:00,52.0,48.0,29.88,North,0,0.0,5.0,86,0.00,,,0.39,,2013-03-19 15:22:00,
2013-03-19 11:34:00,54.0,49.0,29.87,NW,320,4.0,6.0,82,0.00,,,0.39,,2013-03-19 15:34:00,
2013-03-19 11:43:00,54.0,49.0,29.87,NW,320,4.0,6.0,82,0.00,,,0.39,,2013-03-19 15:43:00,
2013-03-19 11:54:00,55.0,49.0,29.87,North,0,0.0,4.0,79,0.00,,,0.39,,2013-03-19 15:54:00,
2013-03-19 12:04:00,56.0,46.0,29.87,NW,325,2.0,7.0,69,0.00,,,0.39,,2013-03-19 16:04:00,
2013-03-19 12:13:00,56.0,46.0,29.87,NW,325,2.0,7.0,69,0.00,,,0.39,,2013-03-19 16:13:00,
2013-03-19 12:24:00,57.0,46.0,29.86,ESE,123,2.0,7.0,66,0.00,,,0.39,,2013-03-19 16:24:00,
2013-03-19 12:34:00,59.0,43.0,29.86,NNW,343,2.0,4.0,56,0.00,,,0.39,,2013-03-19 16:34:00,
2013-03-19 12:44:00,59.0,43.0,29.86,NNW,343,2.0,4.0,56,0.00,,,0.39,,2013-03-19 16:44:00,
2013-03-19 12:54:00,59.0,42.0,29.85,NW,321,2.0,6.0,54,0.00,,,0.39,,2013-03-19 16:54:00,
2013-03-19 13:03:00,61.0,43.0,29.85,NW,314,2.0,6.0,52,0.00,,,0.39,,2013-03-19 17:03:00,
2013-03-19 13:13:00,61.0,42.0,29.85,North,0,0.0,5.0,49,0.00,,,0.39,,2013-03-19 17:13:00,
2013-03-19 13:23:00,61.0,42.0,29.85,North,0,0.0,5.0,49,0.00,,,0.39,,2013-03-19 17:23:00,
2013-03-19 13:34:00,62.0,42.0,29.85,NW,314,1.0,5.0,47,0.00,,,0.39,,2013-03-19 17:34:00,
2013-03-19 13:44:00,62.0,42.0,29.85,NW,314,1.0,5.0,47,0.00,,,0.39,,2013-03-19 17:44:00,
2013-03-19 13:53:00,63.0,41.0,29.85,NW,316,1.0,5.0,44,0.00,,,0.39,,2013-03-19 17:53:00,
2013-03-19 14:03:00,63.0,37.0,29.84,East,91,1.0,4.0,38,0.00,,,0.39,,2013-03-19 18:03:00,
2013-03-19 14:13:00,63.0,37.0,29.84,East,91,1.0,4.0,38,0.00,,,0.39,,2013-03-19 18:13:00,
2013-03-19 14:23:00,63.0,38.0,29.84,NNW,346,1.0,4.0,40,0.00,,,0.39,,2013-03-19 18:23:00,
2013-03-19 14:34:00,64.0,40.0,29.84,North,0,0.0,12.0,41,0.00,,,0.39,,2013-03-19 18:34:00,
2013-03-19 14:43:00,64.0,40.0,29.84,North,0,0.0,12.0,41,0.00,,,0.39,,2013-03-19 18:43:00,
2013-03-19 14:53:00,65.0,39.0,29.83,North,0,0.0,5.0,38,0.00,,,0.39,,2013-03-19 18:53:00,
2013-03-19 15:03:00,65.0,36.0,29.83,North,353,2.0,5.0,34,0.00,,,0.39,,2013-03-19 19:03:00,
2013-03-19 15:12:00,65.0,36.0,29.83,North,353,2.0,5.0,34,0.00,,,0.39,,2013-03-19 19:12:00,
2013-03-19 15:22:00,65.0,36.0,29.83,North,353,2.0,5.0,34,0.00,,,0.39,,2013-03-19 19:22:00,
2013-03-19 15:33:00,66.0,40.0,29.82,NW,322,1.0,6.0,38,0.00,,,0.39,,2013-03-19 19:33:00,
2013-03-19 15:42:00,66.0,40.0,29.82,NW,322,1.0,6.0,38,0.00,,,0.39,,2013-03-19 19:42:00,
2013-03-19 15:53:00,66.0,38.0,29.82,SE,139,4.0,11.0,35,0.00,,,0.39,,2013-03-19 19:53:00,
2013-03-19 16:03:00,67.0,41.0,29.82,SE,141,1.0,7.0,39,0.00,,,0.39,,2013-03-19 20:03:00,
2013-03-19 16:12:00,67.0,41.0,29.82,SE,141,1.0,7.0,39,0.00,,,0.39,,2013-03-19 20:12:00,
2013-03-19 16:22:00,67.0,41.0,29.82,SE,141,1.0,7.0,39,0.00,,,0.39,,2013-03-19 20:22:00,
2013-03-19 16:33:00,67.0,41.0,29.82,SE,141,1.0,7.0,39,0.00,,,0.39,,2013-03-19 20:33:00,
2013-03-19 17:03:00,67.0,35.0,29.83,WNW,303,2.0,5.0,30,0.00,,,0.39,,2013-03-19 21:03:00,
2013-03-19 17:12:00,66.0,36.0,29.84,NW,323,1.0,3.0,33,0.00,,,0.39,,2013-03-19 21:12:00,
2013-03-19 17:23:00,66.0,36.0,29.84,NW,323,1.0,3.0,33,0.00,,,0.39,,2013-03-19 21:23:00,
2013-03-19 17:34:00,65.0,33.0,29.84,NW,323,2.0,6.0,30,0.00,,,0.39,,2013-03-19 21:34:00,
2013-03-19 17:43:00,65.0,33.0,29.84,NW,323,2.0,6.0,30,0.00,,,0.39,,2013-03-19 21:43:00,
2013-03-19 17:52:00,65.0,30.0,29.84,NNW,327,1.0,7.0,27,0.00,,,0.39,,2013-03-19 21:52:00,
2013-03-19 18:03:00,63.0,29.0,29.84,NW,322,3.0,8.0,28,0.00,,,0.39,,2013-03-19 22:03:00,
2013-03-19 18:13:00,62.0,29.0,29.84,NNW,337,1.0,9.0,28,0.00,,,0.39,,2013-03-19 22:13:00,
2013-03-19 18:23:00,62.0,29.0,29.84,NNW,337,1.0,9.0,28,0.00,,,0.39,,2013-03-19 22:23:00,
2013-03-19 18:33:00,61.0,28.0,29.85,NNW,328,1.0,5.0,28,0.00,,,0.39,,2013-03-19 22:33:00,
2013-03-19 18:43:00,61.0,29.0,29.85,North,0,0.0,3.0,30,0.00,,,0.39,,2013-03-19 22:43:00,
2013-03-19 18:53:00,61.0,29.0,29.85,North,0,0.0,3.0,30,0.00,,,0.39,,2013-03-19 22:53:00,
2013-03-19 19:03:00,60.0,29.0,29.87,North,0,0.0,2.0,31,0.00,,,0.39,,2013-03-19 23:03:00,
2013-03-19 19:12:00,60.0,29.0,29.88,NNW,348,1.0,7.0,31,0.00,,,0.39,,2013-03-19 23:12:00,
2013-03-19 19:22:00,60.0,29.0,29.88,NNW,348,1.0,7.0,31,0.00,,,0.39,,2013-03-19 23:22:00,
2013-03-19 19:33:00,59.0,28.0,29.89,NNW,332,1.0,4.0,31,0.00,,,0.39,,2013-03-19 23:33:00,
2013-03-19 19:42:00,59.0,28.0,29.89,NNW,332,1.0,4.0,31,0.00,,,0.39,,2013-03-19 23:42:00,
2013-03-19 19:52:00,58.0,28.0,29.89,North,0,0.0,1.0,32,0.00,,,0.39,,2013-03-19 23:52:00,
2013-03-19 20:03:00,56.0,27.0,29.89,North,0,0.0,1.0,33,0.00,,,0.38,,2013-03-20 00:03:00,
2013-03-19 20:13:00,56.0,27.0,29.89,North,0,0.0,1.0,33,0.00,,,0.38,,2013-03-20 00:13:00,
2013-03-19 20:22:00,56.0,27.0,29.89,North,0,0.0,1.0,33,0.00,,,0.38,,2013-03-20 00:22:00,
2013-03-19 20:33:00,54.0,28.0,29.91,North,0,0.0,1.0,36,0.00,,,0.38,,2013-03-20 00:33:00,
2013-03-19 20:42:00,54.0,28.0,29.91,North,0,0.0,1.0,36,0.00,,,0.38,,2013-03-20 00:42:00,
2013-03-19 20:52:00,54.0,27.0,29.91,North,0,0.0,2.0,35,0.00,,,0.38,,2013-03-20 00:52:00,
2013-03-19 21:03:00,53.0,27.0,29.93,North,0,0.0,0.0,37,0.00,,,0.32,,2013-03-20 01:03:00,
2013-03-19 21:12:00,52.0,28.0,29.93,North,0,0.0,0.0,40,0.00,,,0.27,,2013-03-20 01:12:00,
2013-03-19 21:22:00,52.0,28.0,29.93,North,0,0.0,0.0,40,0.00,,,0.27,,2013-03-20 01:22:00,
2013-03-19 21:32:00,50.0,29.0,29.95,North,0,0.0,0.0,44,0.00,,,0.21,,2013-03-20 01:32:00,
2013-03-19 21:42:00,50.0,29.0,29.95,North,0,0.0,0.0,44,0.00,,,0.21,,2013-03-20 01:42:00,
2013-03-19 21:52:00,49.0,28.0,29.96,North,0,0.0,0.0,44,0.00,,,0.18,,2013-03-20 01:52:00,
2013-03-19 22:02:00,49.0,29.0,29.96,North,0,0.0,0.0,45,0.00,,,0.18,,2013-03-20 02:02:00,
2013-03-19 22:12:00,49.0,29.0,29.96,North,0,0.0,0.0,45,0.00,,,0.18,,2013-03-20 02:12:00,
2013-03-19 22:22:00,48.0,27.0,29.97,North,0,0.0,4.0,44,0.00,,,0.18,,2013-03-20 02:22:00,
2013-03-19 22:32:00,49.0,27.0,29.97,North,0,0.0,0.0,42,0.00,,,0.17,,2013-03-20 02:32:00,
2013-03-19 22:42:00,49.0,27.0,29.97,North,0,0.0,0.0,42,0.00,,,0.17,,2013-03-20 02:42:00,
2013-03-19 22:52:00,49.0,27.0,29.97,North,0,0.0,0.0,42,0.00,,,0.13,,2013-03-20 02:52:00,
2013-03-19 23:02:00,48.0,25.0,29.98,North,0,0.0,0.0,41,0.00,,,0.04,,2013-03-20 03:02:00,
2013-03-19 23:12:00,48.0,23.0,29.98,North,0,0.0,2.0,37,0.00,,,0.00,,2013-03-20 03:12:00,
2013-03-19 23:22:00,48.0,23.0,29.98,North,0,0.0,2.0,37,0.00,,,0.00,,2013-03-20 03:22:00,
2013-03-19 23:34:00,47.0,22.0,29.98,North,0,0.0,0.0,37,0.00,,,0.00,,2013-03-20 03:34:00,
2013-03-19 23:43:00,47.0,22.0,29.98,North,0,0.0,0.0,37,0.00,,,0.00,,2013-03-20 03:43:00,
2013-03-19 23:53:00,47.0,21.0,29.99,North,0,0.0,0.0,36,0.00,,,0.00,,2013-03-20 03:53:00,